createdAt,value
2023-02-19T00:14:48.227Z,1011
2023-02-19T00:30:30.724Z,1011
2023-02-19T00:46:13.745Z,1011
2023-02-19T01:01:56.681Z,1011
2023-02-19T01:17:38.849Z,1011
2023-02-19T01:33:21.017Z,1010
2023-02-19T01:49:03.525Z,1010
2023-02-19T02:04:46.108Z,1010
2023-02-19T02:20:28.592Z,1010
2023-02-19T02:36:11.061Z,1010
2023-02-19T02:51:53.715Z,1010
2023-02-19T03:07:36.266Z,1010
2023-02-19T03:23:19.382Z,1010
2023-02-19T03:39:01.751Z,1010
2023-02-19T03:54:44.899Z,1010
2023-02-19T04:10:27.704Z,1010
2023-02-19T04:26:09.873Z,1011
2023-02-19T04:41:52.301Z,1011
2023-02-19T04:57:35.103Z,1011
2023-02-19T05:13:17.499Z,1011
2023-02-19T05:29:00.378Z,1011
2023-02-19T05:44:43.150Z,1011
2023-02-19T06:00:26.146Z,1011
2023-02-19T06:16:08.823Z,1011
2023-02-19T06:31:51.154Z,1011
2023-02-19T06:47:33.681Z,1012
2023-02-19T07:03:16.228Z,1012
2023-02-19T07:18:58.546Z,1012
2023-02-19T07:34:41.078Z,1012
2023-02-19T07:50:24.272Z,1013
2023-02-19T08:06:06.637Z,1013
2023-02-19T08:21:48.671Z,1013
2023-02-19T08:37:31.226Z,1014
2023-02-19T09:56:03.967Z,1015
2023-02-19T10:11:53.500Z,1015
2023-02-19T10:27:35.965Z,1015
2023-02-19T11:14:43.639Z,1016
2023-02-19T11:30:18.810Z,1016
2023-02-19T12:01:43.607Z,1016
2023-02-19T12:17:33.328Z,1016
2023-02-19T12:33:16.354Z,1016
2023-02-19T14:07:24.303Z,1017
2023-02-19T14:23:07.310Z,1017
2023-02-19T14:38:50.369Z,1017
2023-02-19T14:54:47.461Z,1017
2023-02-19T15:10:15.747Z,1017
2023-02-19T15:26:05.772Z,1018
2023-02-19T15:41:41.581Z,1018
2023-02-19T15:42:35.995Z,1018
2023-02-19T15:58:11.460Z,1018
2023-02-19T16:13:54.471Z,1018
2023-02-19T16:29:36.692Z,1018
2023-02-19T16:45:19.414Z,1019
2023-02-19T17:01:02.519Z,1019
2023-02-19T17:16:44.778Z,1019
2023-02-19T17:32:27.701Z,1019
2023-02-19T17:48:10.580Z,1019
2023-02-19T18:03:53.356Z,1019
2023-02-19T18:19:36.127Z,1019
2023-02-19T18:35:18.416Z,1019
2023-02-19T18:51:00.903Z,1020
2023-02-19T19:06:43.892Z,1020
2023-02-19T19:22:26.663Z,1020
2023-02-19T19:38:09.574Z,1020
2023-02-19T19:53:52.270Z,1020
2023-02-19T20:09:34.940Z,1019
2023-02-19T20:25:17.366Z,1020
2023-02-19T20:40:59.578Z,1020
2023-02-19T20:56:42.013Z,1020
2023-02-19T21:12:24.262Z,1020
2023-02-19T21:28:07.300Z,1020
2023-02-19T21:43:49.514Z,1020
2023-02-19T21:59:32.435Z,1019
2023-02-19T22:15:15.209Z,1019
2023-02-19T22:30:57.730Z,1019
2023-02-19T22:46:40.162Z,1019
2023-02-19T23:02:23.065Z,1019
2023-02-19T23:18:05.755Z,1019
2023-02-19T23:33:48.062Z,1019
2023-02-19T23:49:31.091Z,1019
